Cap Aiguades — FMII — position and weather

sailwx.info

Track history (hours):
 
Tides and Currents Weather Stations Pressure Air Temp Water Temp Dewpoint Dewpoint Depression Visibility Wind Speed Wind Dir Waves Ship Positions

Cap Aiguades

Last reported at 2015-Mar-05 02:33 UTC. Time now 2015-Mar-05 02:39 UTC.
Position N 43°24' E 004°59'.

Length 89 m; draft 3.5 m.

Type: Ship. MMSI: 228237800.

Date/timePositionNaut miles runAvg speedWind from/ knotsBaromVisibWave heightAir tempDewpointWater temp
2015-Mar-05 02:33N 43°24' E 004°59'0 0.0
2015-Mar-05 01:33N 43°24' E 004°59'0 0.0
2015-Mar-05 00:33N 43°24' E 004°59'0 0.0
2015-Mar-04 23:33N 43°24' E 004°59'0 0.0
2015-Mar-04 22:33N 43°24' E 004°59'0 0.0
2015-Mar-04 21:33N 43°24' E 004°59'0 0.0
2015-Mar-04 20:33N 43°24' E 004°59'0 0.0
2015-Mar-04 19:33N 43°24' E 004°59'0 0.0
2015-Mar-04 18:33N 43°24' E 004°59'0 0.0
2015-Mar-04 17:33N 43°24' E 004°59'0 0.0
2015-Mar-04 16:33N 43°24' E 004°59'0 0.0
2015-Mar-04 15:33N 43°24' E 004°59'0 0.0
2015-Mar-04 14:33N 43°24' E 004°59'0 0.1
2015-Mar-04 13:33N 43°24' E 004°59'0 0.0
2015-Mar-04 12:33N 43°24' E 004°59'0 0.0
2015-Mar-04 11:33N 43°24' E 004°59'0 0.0
2015-Mar-04 10:33N 43°24' E 004°59'0 0.0
2015-Mar-04 09:33N 43°24' E 004°59'0 0.0
2015-Mar-04 08:33N 43°24' E 004°59'0 0.0
2015-Mar-04 07:33N 43°24' E 004°59'0 0.0
2015-Mar-04 06:33N 43°24' E 004°59'0 0.0
2015-Mar-04 05:33N 43°24' E 004°59'0 0.0
2015-Mar-04 04:33N 43°24' E 004°59'3 2.6
2015-Mar-04 03:33N 43°24' E 004°56'4 3.8
2015-Mar-04 02:33N 43°25' E 004°51'0 0.0
2015-Mar-04 01:32N 43°25' E 004°51'0 0.0
2015-Mar-04 00:33N 43°25' E 004°51'0 0.0
2015-Mar-03 23:33N 43°25' E 004°51'0 0.0
2015-Mar-03 22:33N 43°25' E 004°51'0 0.0
2015-Mar-03 21:33N 43°25' E 004°51'0 0.0
2015-Mar-03 20:33N 43°25' E 004°51'0 0.0
2015-Mar-03 19:33N 43°25' E 004°51'0 0.0
2015-Mar-03 18:33N 43°25' E 004°51'0 0.0
2015-Mar-03 17:33N 43°25' E 004°51'0 0.0
2015-Mar-03 16:33N 43°25' E 004°51'0 0.0
2015-Mar-03 15:33N 43°25' E 004°51'2 2.1
2015-Mar-03 14:33N 43°26' E 004°53'0 0.0
2015-Mar-03 13:33N 43°26' E 004°53'0 0.0
2015-Mar-03 12:33N 43°26' E 004°53'0 0.0
2015-Mar-03 11:33N 43°26' E 004°53'0 0.0
2015-Mar-03 10:33N 43°26' E 004°53'0 0.0
2015-Mar-03 09:33N 43°26' E 004°53'0 0.0
2015-Mar-03 08:33N 43°26' E 004°53'0 0.0
2015-Mar-03 07:33N 43°26' E 004°53'0 0.0
2015-Mar-03 06:33N 43°26' E 004°53'0 0.0
2015-Mar-03 05:33N 43°26' E 004°53'0 0.0
2015-Mar-03 04:33N 43°26' E 004°53'0 0.0
2015-Mar-03 03:33N 43°26' E 004°53'0 0.0
2015-Mar-03 02:33N 43°26' E 004°53'0 0.0
2015-Mar-03 01:34N 43°26' E 004°53'0 0.0
2015-Mar-03 00:33N 43°26' E 004°53'0 0.0
2015-Mar-02 23:33N 43°26' E 004°53'5 4.8
2015-Mar-02 22:34N 43°24' E 004°59'0 0.2
2015-Mar-02 21:33N 43°24' E 004°59'0 0.0
2015-Mar-02 20:34N 43°24' E 004°59'0 0.0
2015-Mar-02 19:33N 43°24' E 004°59'0 0.0
2015-Mar-02 18:34N 43°24' E 004°59'0 0.0
2015-Mar-02 17:34N 43°24' E 004°59'0 0.0
2015-Mar-02 16:33N 43°24' E 004°59'0 0.0
2015-Mar-02 15:33N 43°24' E 004°59'0 0.0
2015-Mar-02 14:33N 43°24' E 004°59'0 0.0
2015-Mar-02 13:33N 43°24' E 004°59'0 0.0
2015-Mar-02 12:34N 43°24' E 004°59'0 0.0
2015-Mar-02 11:33N 43°24' E 004°59'0 0.0
2015-Mar-02 10:34N 43°24' E 004°59'0 0.0
2015-Mar-02 09:33N 43°24' E 004°59'0 0.0
2015-Mar-02 08:33N 43°24' E 004°59'1 0.6
2015-Mar-02 07:33N 43°24' E 004°59'0 0.0
2015-Mar-02 06:33N 43°24' E 004°59'0 0.0
2015-Mar-02 05:33N 43°24' E 004°59'0 0.0
2015-Mar-02 04:33N 43°24' E 004°59'0 0.0
2015-Mar-02 03:33N 43°24' E 004°59'0 0.0
2015-Mar-02 02:33N 43°24' E 004°59'0 0.0
2015-Mar-02 01:33N 43°24' E 004°59'0 0.0
2015-Mar-02 00:33N 43°24' E 004°59'0 0.0
2015-Mar-01 23:34N 43°24' E 004°59'0 0.0
2015-Mar-01 22:33N 43°24' E 004°59'0 0.0
2015-Mar-01 21:33N 43°24' E 004°59'0 0.0
2015-Mar-01 20:33N 43°24' E 004°59'0 0.0
2015-Mar-01 19:34N 43°24' E 004°59'0 0.0
2015-Mar-01 18:33N 43°24' E 004°59'0 0.0
2015-Mar-01 17:33N 43°24' E 004°59'0 0.0
2015-Mar-01 16:33N 43°24' E 004°59'0 0.0
2015-Mar-01 15:33N 43°24' E 004°59'0 0.0
2015-Mar-01 14:33N 43°24' E 004°59'2 2.3
2015-Mar-01 13:33N 43°22' E 004°59'1010.4
2015-Mar-01 12:33N 43°18' E 005°12'7 7.0
2015-Mar-01 11:33N 43°19' E 005°22'0 0.0
2015-Mar-01 10:33N 43°19' E 005°22'0 0.0
2015-Mar-01 09:33N 43°19' E 005°22'0 0.0
2015-Mar-01 08:34N 43°19' E 005°22'10 7.5
2015-Mar-01 07:14N 43°18' E 005°08'811.6
2015-Mar-01 06:33N 43°21' E 004°58'6 6.3
2015-Mar-01 05:33N 43°24' E 004°51'0 0.0
2015-Mar-01 04:33N 43°24' E 004°51'0 0.0
2015-Mar-01 03:33N 43°24' E 004°51'0 0.0
2015-Mar-01 02:33N 43°24' E 004°51'0 0.0
2015-Mar-01 01:33N 43°24' E 004°51'0 0.0
2015-Mar-01 00:33N 43°24' E 004°51'0 0.0
2015-Feb-28 23:33N 43°24' E 004°51'0 0.0
2015-Feb-28 22:33N 43°24' E 004°51'1 1.1
2015-Feb-28 21:33N 43°24' E 004°53'5 5.0
2015-Feb-28 20:33N 43°24' E 004°59'0 0.0
2015-Feb-28 19:33N 43°24' E 004°59'0 0.0
2015-Feb-28 18:34N 43°24' E 004°59'0 0.0
2015-Feb-28 17:33N 43°24' E 004°59'0 0.0
2015-Feb-28 16:34N 43°24' E 004°59'0 0.0
2015-Feb-28 15:33N 43°24' E 004°59'0 0.0
2015-Feb-28 14:33N 43°24' E 004°59'0 0.0
2015-Feb-28 13:33N 43°24' E 004°59'0 0.0
2015-Feb-28 12:33N 43°24' E 004°59'0 0.0
2015-Feb-28 11:34N 43°24' E 004°59'0 0.0
2015-Feb-28 10:33N 43°24' E 004°59'0 0.0
2015-Feb-28 09:33N 43°24' E 004°59'0 0.0
2015-Feb-28 08:33N 43°24' E 004°59'0 0.0
2015-Feb-28 07:33N 43°24' E 004°59'0 0.0
2015-Feb-28 06:34N 43°24' E 004°59'0 0.0
2015-Feb-28 05:33N 43°24' E 004°59'7 6.9
2015-Feb-28 04:33N 43°25' E 004°50'0 0.0
2015-Feb-28 03:33N 43°25' E 004°50'0 0.0
2015-Feb-28 02:33N 43°25' E 004°50'0 0.0
2015-Feb-28 01:33N 43°25' E 004°50'0 0.0
2015-Feb-28 00:33N 43°25' E 004°50'0 0.0
2015-Feb-27 23:33N 43°25' E 004°50'0 0.0
2015-Feb-27 22:33N 43°25' E 004°50'0 0.0
2015-Feb-27 21:32N 43°25' E 004°50'0 0.0
2015-Feb-27 20:32N 43°25' E 004°50'0 0.3
2015-Feb-27 19:33N 43°25' E 004°50'1010.0
2015-Feb-27 18:32N 43°18' E 005°01'9 9.4
2015-Feb-27 17:33N 43°19' E 005°14'5 5.3
2015-Feb-27 16:33N 43°21' E 005°20'0 0.0
2015-Feb-27 15:33N 43°21' E 005°20'0 0.0
2015-Feb-27 14:33N 43°21' E 005°20'0 0.0
2015-Feb-27 13:33N 43°21' E 005°20'0 0.3
2015-Feb-27 12:33N 43°21' E 005°20'0 0.0
2015-Feb-27 11:33N 43°21' E 005°20'5 4.9
2015-Feb-27 10:31N 43°18' E 005°14'9 9.5
2015-Feb-27 09:33N 43°18' E 005°01'6 5.7
2015-Feb-27 08:33N 43°24' E 004°59'0 0.0
2015-Feb-27 07:33N 43°24' E 004°59'0 0.0
2015-Feb-27 06:33N 43°24' E 004°59'0 0.0
2015-Feb-27 05:33N 43°24' E 004°59'0 0.0
2015-Feb-27 04:33N 43°24' E 004°59'0 0.0
2015-Feb-27 03:33N 43°24' E 004°59'0 0.0
2015-Feb-27 02:33N 43°24' E 004°59'0 0.0
2015-Feb-27 01:33N 43°24' E 004°59'0 0.0
2015-Feb-27 00:33N 43°24' E 004°59'0 0.0
2015-Feb-26 23:33N 43°24' E 004°59'0 0.0
2015-Feb-26 22:33N 43°24' E 004°59'0 0.0
2015-Feb-26 21:33N 43°24' E 004°59'0 0.0
2015-Feb-26 20:33N 43°24' E 004°59'0 0.0
2015-Feb-26 19:33N 43°24' E 004°59'0 0.0
2015-Feb-26 18:33N 43°24' E 004°59'0 0.0
2015-Feb-26 17:33N 43°24' E 004°59'8 7.8
2015-Feb-26 16:33N 43°16' E 005°01'4310.6
2015-Feb-26 12:30N 43°05' E 005°58'3 2.6
2015-Feb-26 11:31N 43°07' E 005°56'0 0.0
2015-Feb-26 10:31N 43°07' E 005°56'0 0.0
2015-Feb-26 09:31N 43°07' E 005°56'0 0.0
2015-Feb-26 07:25N 43°07' E 005°56'1 1.7
2015-Feb-26 06:34N 43°06' E 005°54'0 0.1
2015-Feb-26 05:31N 43°06' E 005°54'0 0.0
2015-Feb-26 04:31N 43°06' E 005°54'0 0.0
2015-Feb-26 03:31N 43°06' E 005°54'0 0.0
2015-Feb-26 02:31N 43°06' E 005°54'0 0.0
2015-Feb-26 01:31N 43°06' E 005°54'0 0.0
2015-Feb-26 00:31N 43°06' E 005°54'0 0.0
2015-Feb-25 23:31N 43°06' E 005°54'0 0.0
2015-Feb-25 22:31N 43°06' E 005°54'0 0.0
2015-Feb-25 21:31N 43°06' E 005°54'0 0.0
2015-Feb-25 20:31N 43°06' E 005°54'2 1.6
2015-Feb-25 19:33N 43°07' E 005°56'0 0.0
2015-Feb-25 18:33N 43°07' E 005°56'0 0.0
2015-Feb-25 17:33N 43°07' E 005°56'0 0.1
2015-Feb-25 16:33N 43°07' E 005°56'0 0.0
2015-Feb-25 15:33N 43°07' E 005°56'0 0.0
2015-Feb-25 14:33N 43°07' E 005°56'1 1.4
2015-Feb-25 13:33N 43°06' E 005°56'42 7.1
2015-Feb-25 07:34N 43°16' E 004°60'8 7.7
2015-Feb-25 06:31N 43°24' E 004°59'0 0.0
2015-Feb-25 05:31N 43°24' E 004°59'0 0.0
2015-Feb-25 04:31N 43°24' E 004°59'0 0.0
2015-Feb-25 03:31N 43°24' E 004°59'0 0.0
2015-Feb-25 02:31N 43°24' E 004°59'0 0.0
2015-Feb-25 01:31N 43°24' E 004°59'0 0.0
2015-Feb-25 00:31N 43°24' E 004°59'0 0.0
2015-Feb-24 23:31N 43°24' E 004°59'0 0.0
2015-Feb-24 22:31N 43°24' E 004°59'0 0.0
2015-Feb-24 21:31N 43°24' E 004°59'0 0.0
2015-Feb-24 20:31N 43°24' E 004°59'0 0.0
2015-Feb-24 19:31N 43°24' E 004°59'0 0.0
2015-Feb-24 18:31N 43°24' E 004°59'0 0.0
2015-Feb-24 17:31N 43°24' E 004°59'0 0.0
2015-Feb-24 16:31N 43°24' E 004°59'0 0.0
2015-Feb-24 15:31N 43°24' E 004°59'1 0.6
2015-Feb-24 14:31N 43°24' E 004°59'0 0.1
2015-Feb-24 13:31N 43°24' E 004°59'0 0.0
2015-Feb-24 12:31N 43°24' E 004°59'0 0.0
2015-Feb-24 11:31N 43°24' E 004°59'0 0.0
2015-Feb-24 10:31N 43°24' E 004°59'0 0.1
2015-Feb-24 09:31N 43°24' E 004°59'0 0.0
2015-Feb-24 08:31N 43°24' E 004°59'0 0.0
2015-Feb-24 07:31N 43°24' E 004°59'0 0.0
2015-Feb-24 06:31N 43°24' E 004°59'0 0.0
2015-Feb-24 05:31N 43°24' E 004°59'0 0.0
2015-Feb-24 04:31N 43°24' E 004°59'0 0.0
2015-Feb-24 03:31N 43°24' E 004°59'0 0.0
2015-Feb-24 02:31N 43°24' E 004°59'0 0.0
2015-Feb-24 01:31N 43°24' E 004°59'0 0.0
2015-Feb-24 00:31N 43°24' E 004°59'0 0.0
2015-Feb-23 23:31N 43°24' E 004°59'0 0.0
2015-Feb-23 22:31N 43°24' E 004°59'0 0.0
2015-Feb-23 21:31N 43°24' E 004°59'0 0.0
2015-Feb-23 20:31N 43°24' E 004°59'0 0.0
2015-Feb-23 19:31N 43°24' E 004°59'0 0.0
2015-Feb-23 18:31N 43°24' E 004°59'0 0.0
2015-Feb-23 17:31N 43°24' E 004°59'0 0.0
2015-Feb-23 16:31N 43°24' E 004°59'0 0.0
2015-Feb-23 15:31N 43°24' E 004°59'0 0.0
2015-Feb-23 14:31N 43°24' E 004°59'0 0.0
2015-Feb-23 13:31N 43°24' E 004°59'0 0.0
2015-Feb-23 12:31N 43°24' E 004°59'0 0.0
2015-Feb-23 11:31N 43°24' E 004°59'0 0.0
2015-Feb-23 10:31N 43°24' E 004°59'0 0.0
2015-Feb-23 09:31N 43°24' E 004°59'0 0.0
2015-Feb-23 08:31N 43°24' E 004°59'0 0.0
2015-Feb-23 07:31N 43°24' E 004°59'0 0.0
2015-Feb-23 06:31N 43°24' E 004°59'0 0.0
2015-Feb-23 05:31N 43°24' E 004°59'0 0.0
2015-Feb-23 04:31N 43°24' E 004°59'0 0.0
2015-Feb-23 03:31N 43°24' E 004°59'  
Track history (hours):
 
Tides and Currents Weather Stations Pressure Air Temp Water Temp Dewpoint Dewpoint Depression Visibility Wind Speed Wind Dir Waves Ship Positions

Cap Aiguades

Last reported at 2015-Mar-05 02:33 UTC. Time now 2015-Mar-05 02:39 UTC.
Position N 43°24' E 004°59'.

Length 89 m; draft 3.5 m.

Type: Ship. MMSI: 228237800.

Date/timePositionNaut miles runAvg speedWind from/ knotsBaromVisibWave heightAir tempDewpointWater temp
2015-Mar-05 02:33N 43°24' E 004°59'0 0.0
2015-Mar-05 01:33N 43°24' E 004°59'0 0.0
2015-Mar-05 00:33N 43°24' E 004°59'0 0.0
2015-Mar-04 23:33N 43°24' E 004°59'0 0.0
2015-Mar-04 22:33N 43°24' E 004°59'0 0.0
2015-Mar-04 21:33N 43°24' E 004°59'0 0.0
2015-Mar-04 20:33N 43°24' E 004°59'0 0.0
2015-Mar-04 19:33N 43°24' E 004°59'0 0.0
2015-Mar-04 18:33N 43°24' E 004°59'0 0.0
2015-Mar-04 17:33N 43°24' E 004°59'0 0.0
2015-Mar-04 16:33N 43°24' E 004°59'0 0.0
2015-Mar-04 15:33N 43°24' E 004°59'0 0.0
2015-Mar-04 14:33N 43°24' E 004°59'0 0.1
2015-Mar-04 13:33N 43°24' E 004°59'0 0.0
2015-Mar-04 12:33N 43°24' E 004°59'0 0.0
2015-Mar-04 11:33N 43°24' E 004°59'0 0.0
2015-Mar-04 10:33N 43°24' E 004°59'0 0.0
2015-Mar-04 09:33N 43°24' E 004°59'0 0.0
2015-Mar-04 08:33N 43°24' E 004°59'0 0.0
2015-Mar-04 07:33N 43°24' E 004°59'0 0.0
2015-Mar-04 06:33N 43°24' E 004°59'0 0.0
2015-Mar-04 05:33N 43°24' E 004°59'0 0.0
2015-Mar-04 04:33N 43°24' E 004°59'3 2.6
2015-Mar-04 03:33N 43°24' E 004°56'4 3.8
2015-Mar-04 02:33N 43°25' E 004°51'0 0.0
2015-Mar-04 01:32N 43°25' E 004°51'0 0.0
2015-Mar-04 00:33N 43°25' E 004°51'0 0.0
2015-Mar-03 23:33N 43°25' E 004°51'0 0.0
2015-Mar-03 22:33N 43°25' E 004°51'0 0.0
2015-Mar-03 21:33N 43°25' E 004°51'0 0.0
2015-Mar-03 20:33N 43°25' E 004°51'0 0.0
2015-Mar-03 19:33N 43°25' E 004°51'0 0.0
2015-Mar-03 18:33N 43°25' E 004°51'0 0.0
2015-Mar-03 17:33N 43°25' E 004°51'0 0.0
2015-Mar-03 16:33N 43°25' E 004°51'0 0.0
2015-Mar-03 15:33N 43°25' E 004°51'2 2.1
2015-Mar-03 14:33N 43°26' E 004°53'0 0.0
2015-Mar-03 13:33N 43°26' E 004°53'0 0.0
2015-Mar-03 12:33N 43°26' E 004°53'0 0.0
2015-Mar-03 11:33N 43°26' E 004°53'0 0.0
2015-Mar-03 10:33N 43°26' E 004°53'0 0.0
2015-Mar-03 09:33N 43°26' E 004°53'0 0.0
2015-Mar-03 08:33N 43°26' E 004°53'0 0.0
2015-Mar-03 07:33N 43°26' E 004°53'0 0.0
2015-Mar-03 06:33N 43°26' E 004°53'0 0.0
2015-Mar-03 05:33N 43°26' E 004°53'0 0.0
2015-Mar-03 04:33N 43°26' E 004°53'0 0.0
2015-Mar-03 03:33N 43°26' E 004°53'0 0.0
2015-Mar-03 02:33N 43°26' E 004°53'0 0.0
2015-Mar-03 01:34N 43°26' E 004°53'0 0.0
2015-Mar-03 00:33N 43°26' E 004°53'0 0.0
2015-Mar-02 23:33N 43°26' E 004°53'5 4.8
2015-Mar-02 22:34N 43°24' E 004°59'0 0.2
2015-Mar-02 21:33N 43°24' E 004°59'0 0.0
2015-Mar-02 20:34N 43°24' E 004°59'0 0.0
2015-Mar-02 19:33N 43°24' E 004°59'0 0.0
2015-Mar-02 18:34N 43°24' E 004°59'0 0.0
2015-Mar-02 17:34N 43°24' E 004°59'0 0.0
2015-Mar-02 16:33N 43°24' E 004°59'0 0.0
2015-Mar-02 15:33N 43°24' E 004°59'0 0.0
2015-Mar-02 14:33N 43°24' E 004°59'0 0.0
2015-Mar-02 13:33N 43°24' E 004°59'0 0.0
2015-Mar-02 12:34N 43°24' E 004°59'0 0.0
2015-Mar-02 11:33N 43°24' E 004°59'0 0.0
2015-Mar-02 10:34N 43°24' E 004°59'0 0.0
2015-Mar-02 09:33N 43°24' E 004°59'0 0.0
2015-Mar-02 08:33N 43°24' E 004°59'1 0.6
2015-Mar-02 07:33N 43°24' E 004°59'0 0.0
2015-Mar-02 06:33N 43°24' E 004°59'0 0.0
2015-Mar-02 05:33N 43°24' E 004°59'0 0.0
2015-Mar-02 04:33N 43°24' E 004°59'0 0.0
2015-Mar-02 03:33N 43°24' E 004°59'0 0.0
2015-Mar-02 02:33N 43°24' E 004°59'0 0.0
2015-Mar-02 01:33N 43°24' E 004°59'0 0.0
2015-Mar-02 00:33N 43°24' E 004°59'0 0.0
2015-Mar-01 23:34N 43°24' E 004°59'0 0.0
2015-Mar-01 22:33N 43°24' E 004°59'0 0.0
2015-Mar-01 21:33N 43°24' E 004°59'0 0.0
2015-Mar-01 20:33N 43°24' E 004°59'0 0.0
2015-Mar-01 19:34N 43°24' E 004°59'0 0.0
2015-Mar-01 18:33N 43°24' E 004°59'0 0.0
2015-Mar-01 17:33N 43°24' E 004°59'0 0.0
2015-Mar-01 16:33N 43°24' E 004°59'0 0.0
2015-Mar-01 15:33N 43°24' E 004°59'0 0.0
2015-Mar-01 14:33N 43°24' E 004°59'2 2.3
2015-Mar-01 13:33N 43°22' E 004°59'1010.4
2015-Mar-01 12:33N 43°18' E 005°12'7 7.0
2015-Mar-01 11:33N 43°19' E 005°22'0 0.0
2015-Mar-01 10:33N 43°19' E 005°22'0 0.0
2015-Mar-01 09:33N 43°19' E 005°22'0 0.0
2015-Mar-01 08:34N 43°19' E 005°22'10 7.5
2015-Mar-01 07:14N 43°18' E 005°08'811.6
2015-Mar-01 06:33N 43°21' E 004°58'6 6.3
2015-Mar-01 05:33N 43°24' E 004°51'0 0.0
2015-Mar-01 04:33N 43°24' E 004°51'0 0.0
2015-Mar-01 03:33N 43°24' E 004°51'0 0.0
2015-Mar-01 02:33N 43°24' E 004°51'0 0.0
2015-Mar-01 01:33N 43°24' E 004°51'0 0.0
2015-Mar-01 00:33N 43°24' E 004°51'0 0.0
2015-Feb-28 23:33N 43°24' E 004°51'0 0.0
2015-Feb-28 22:33N 43°24' E 004°51'1 1.1
2015-Feb-28 21:33N 43°24' E 004°53'5 5.0
2015-Feb-28 20:33N 43°24' E 004°59'0 0.0
2015-Feb-28 19:33N 43°24' E 004°59'0 0.0
2015-Feb-28 18:34N 43°24' E 004°59'0 0.0
2015-Feb-28 17:33N 43°24' E 004°59'0 0.0
2015-Feb-28 16:34N 43°24' E 004°59'0 0.0
2015-Feb-28 15:33N 43°24' E 004°59'0 0.0
2015-Feb-28 14:33N 43°24' E 004°59'0 0.0
2015-Feb-28 13:33N 43°24' E 004°59'0 0.0
2015-Feb-28 12:33N 43°24' E 004°59'0 0.0
2015-Feb-28 11:34N 43°24' E 004°59'0 0.0
2015-Feb-28 10:33N 43°24' E 004°59'0 0.0
2015-Feb-28 09:33N 43°24' E 004°59'0 0.0
2015-Feb-28 08:33N 43°24' E 004°59'0 0.0
2015-Feb-28 07:33N 43°24' E 004°59'0 0.0
2015-Feb-28 06:34N 43°24' E 004°59'0 0.0
2015-Feb-28 05:33N 43°24' E 004°59'7 6.9
2015-Feb-28 04:33N 43°25' E 004°50'0 0.0
2015-Feb-28 03:33N 43°25' E 004°50'0 0.0
2015-Feb-28 02:33N 43°25' E 004°50'0 0.0
2015-Feb-28 01:33N 43°25' E 004°50'0 0.0
2015-Feb-28 00:33N 43°25' E 004°50'0 0.0
2015-Feb-27 23:33N 43°25' E 004°50'0 0.0
2015-Feb-27 22:33N 43°25' E 004°50'0 0.0
2015-Feb-27 21:32N 43°25' E 004°50'0 0.0
2015-Feb-27 20:32N 43°25' E 004°50'0 0.3
2015-Feb-27 19:33N 43°25' E 004°50'1010.0
2015-Feb-27 18:32N 43°18' E 005°01'9 9.4
2015-Feb-27 17:33N 43°19' E 005°14'5 5.3
2015-Feb-27 16:33N 43°21' E 005°20'0 0.0
2015-Feb-27 15:33N 43°21' E 005°20'0 0.0
2015-Feb-27 14:33N 43°21' E 005°20'0 0.0
2015-Feb-27 13:33N 43°21' E 005°20'0 0.3
2015-Feb-27 12:33N 43°21' E 005°20'0 0.0
2015-Feb-27 11:33N 43°21' E 005°20'5 4.9
2015-Feb-27 10:31N 43°18' E 005°14'9 9.5
2015-Feb-27 09:33N 43°18' E 005°01'6 5.7
2015-Feb-27 08:33N 43°24' E 004°59'0 0.0
2015-Feb-27 07:33N 43°24' E 004°59'0 0.0
2015-Feb-27 06:33N 43°24' E 004°59'0 0.0
2015-Feb-27 05:33N 43°24' E 004°59'0 0.0
2015-Feb-27 04:33N 43°24' E 004°59'0 0.0
2015-Feb-27 03:33N 43°24' E 004°59'0 0.0
2015-Feb-27 02:33N 43°24' E 004°59'0 0.0
2015-Feb-27 01:33N 43°24' E 004°59'0 0.0
2015-Feb-27 00:33N 43°24' E 004°59'0 0.0
2015-Feb-26 23:33N 43°24' E 004°59'0 0.0
2015-Feb-26 22:33N 43°24' E 004°59'0 0.0
2015-Feb-26 21:33N 43°24' E 004°59'0 0.0
2015-Feb-26 20:33N 43°24' E 004°59'0 0.0
2015-Feb-26 19:33N 43°24' E 004°59'0 0.0
2015-Feb-26 18:33N 43°24' E 004°59'0 0.0
2015-Feb-26 17:33N 43°24' E 004°59'8 7.8
2015-Feb-26 16:33N 43°16' E 005°01'4310.6
2015-Feb-26 12:30N 43°05' E 005°58'3 2.6
2015-Feb-26 11:31N 43°07' E 005°56'0 0.0
2015-Feb-26 10:31N 43°07' E 005°56'0 0.0
2015-Feb-26 09:31N 43°07' E 005°56'0 0.0
2015-Feb-26 07:25N 43°07' E 005°56'1 1.7
2015-Feb-26 06:34N 43°06' E 005°54'0 0.1
2015-Feb-26 05:31N 43°06' E 005°54'0 0.0
2015-Feb-26 04:31N 43°06' E 005°54'0 0.0
2015-Feb-26 03:31N 43°06' E 005°54'0 0.0
2015-Feb-26 02:31N 43°06' E 005°54'0 0.0
2015-Feb-26 01:31N 43°06' E 005°54'0 0.0
2015-Feb-26 00:31N 43°06' E 005°54'0 0.0
2015-Feb-25 23:31N 43°06' E 005°54'0 0.0
2015-Feb-25 22:31N 43°06' E 005°54'0 0.0
2015-Feb-25 21:31N 43°06' E 005°54'0 0.0
2015-Feb-25 20:31N 43°06' E 005°54'2 1.6
2015-Feb-25 19:33N 43°07' E 005°56'0 0.0
2015-Feb-25 18:33N 43°07' E 005°56'0 0.0
2015-Feb-25 17:33N 43°07' E 005°56'0 0.1
2015-Feb-25 16:33N 43°07' E 005°56'0 0.0
2015-Feb-25 15:33N 43°07' E 005°56'0 0.0
2015-Feb-25 14:33N 43°07' E 005°56'1 1.4
2015-Feb-25 13:33N 43°06' E 005°56'42 7.1
2015-Feb-25 07:34N 43°16' E 004°60'8 7.7
2015-Feb-25 06:31N 43°24' E 004°59'0 0.0
2015-Feb-25 05:31N 43°24' E 004°59'0 0.0
2015-Feb-25 04:31N 43°24' E 004°59'0 0.0
2015-Feb-25 03:31N 43°24' E 004°59'0 0.0
2015-Feb-25 02:31N 43°24' E 004°59'0 0.0
2015-Feb-25 01:31N 43°24' E 004°59'0 0.0
2015-Feb-25 00:31N 43°24' E 004°59'0 0.0
2015-Feb-24 23:31N 43°24' E 004°59'0 0.0
2015-Feb-24 22:31N 43°24' E 004°59'0 0.0
2015-Feb-24 21:31N 43°24' E 004°59'0 0.0
2015-Feb-24 20:31N 43°24' E 004°59'0 0.0
2015-Feb-24 19:31N 43°24' E 004°59'0 0.0
2015-Feb-24 18:31N 43°24' E 004°59'0 0.0
2015-Feb-24 17:31N 43°24' E 004°59'0 0.0
2015-Feb-24 16:31N 43°24' E 004°59'0 0.0
2015-Feb-24 15:31N 43°24' E 004°59'1 0.6
2015-Feb-24 14:31N 43°24' E 004°59'0 0.1
2015-Feb-24 13:31N 43°24' E 004°59'0 0.0
2015-Feb-24 12:31N 43°24' E 004°59'0 0.0
2015-Feb-24 11:31N 43°24' E 004°59'0 0.0
2015-Feb-24 10:31N 43°24' E 004°59'0 0.1
2015-Feb-24 09:31N 43°24' E 004°59'0 0.0
2015-Feb-24 08:31N 43°24' E 004°59'0 0.0
2015-Feb-24 07:31N 43°24' E 004°59'0 0.0
2015-Feb-24 06:31N 43°24' E 004°59'0 0.0
2015-Feb-24 05:31N 43°24' E 004°59'0 0.0
2015-Feb-24 04:31N 43°24' E 004°59'0 0.0
2015-Feb-24 03:31N 43°24' E 004°59'0 0.0
2015-Feb-24 02:31N 43°24' E 004°59'0 0.0
2015-Feb-24 01:31N 43°24' E 004°59'0 0.0
2015-Feb-24 00:31N 43°24' E 004°59'0 0.0
2015-Feb-23 23:31N 43°24' E 004°59'0 0.0
2015-Feb-23 22:31N 43°24' E 004°59'0 0.0
2015-Feb-23 21:31N 43°24' E 004°59'0 0.0
2015-Feb-23 20:31N 43°24' E 004°59'0 0.0
2015-Feb-23 19:31N 43°24' E 004°59'0 0.0
2015-Feb-23 18:31N 43°24' E 004°59'0 0.0
2015-Feb-23 17:31N 43°24' E 004°59'0 0.0
2015-Feb-23 16:31N 43°24' E 004°59'0 0.0
2015-Feb-23 15:31N 43°24' E 004°59'0 0.0
2015-Feb-23 14:31N 43°24' E 004°59'0 0.0
2015-Feb-23 13:31N 43°24' E 004°59'0 0.0
2015-Feb-23 12:31N 43°24' E 004°59'0 0.0
2015-Feb-23 11:31N 43°24' E 004°59'0 0.0
2015-Feb-23 10:31N 43°24' E 004°59'0 0.0
2015-Feb-23 09:31N 43°24' E 004°59'0 0.0
2015-Feb-23 08:31N 43°24' E 004°59'0 0.0
2015-Feb-23 07:31N 43°24' E 004°59'0 0.0
2015-Feb-23 06:31N 43°24' E 004°59'0 0.0
2015-Feb-23 05:31N 43°24' E 004°59'0 0.0
2015-Feb-23 04:31N 43°24' E 004°59'0 0.0
2015-Feb-23 03:31N 43°24' E 004°59'  

Dump ship's entire track history